Flight Track Log - Related Links

Times and Time Zones

All times are in EDT time to prevent confusion due to time zone crossing. See the AWI3699 flight status page for this flight to view local times or setup timezone preferences in your user account.

Time Position Orientation Groundspeed Altitude Reporting Facility
EDT Latitude Longitude Course Direction KTS MPH feet Rate Location/Type
Sun 06:44:21 PM 41.1000 -73.7500 234° Southwest 146 168 2,400  Level New York TRACON
Sun 06:45:21 PM 41.1000 -73.8167 270° West 192 221 5,100 2,200 Climbing New York TRACON
Sun 06:46:00 PM 40.9088 -73.9866 239° Southwest  Level FlightAware Approximate
Sun 06:46:21 PM 41.0500 -73.8667 217° Southwest 235 270 6,800  Level New York TRACON
Sun 06:47:00 PM 40.8605 -74.0913 239° Southwest  Level FlightAware Approximate
Sun 06:47:21 PM 40.9833 -73.9333 217° Southwest 275 316 9,100  Level New York TRACON
Sun 06:48:00 PM 40.8096 -74.1936 234° Southwest  Level FlightAware Approximate
Sun 06:48:21 PM 40.9333 -74.0000 225° Southwest 277 319 11,900  Level New York TRACON
Sun 06:49:00 PM 40.7554 -74.2930 234° Southwest  Level FlightAware Approximate
Sun 06:49:21 PM 40.8667 -74.0667 217° Southwest 291 335 13,600  Level New York TRACON
Sun 06:51:40 PM 40.7483 -74.3019 236° Southwest 345 397 15,700 1,041 Climbing New York Center
Sun 06:52:37 PM 40.6972 -74.4061 237° Southwest 351 404 17,000 1,627 Climbing New York Center
Sun 06:53:38 PM 40.6319 -74.4956 226° Southwest 351 404 18,900 1,587 Climbing New York Center
Sun 06:54:38 PM 40.5647 -74.5792 223° Southwest 345 397 20,200 1,289 Climbing New York Center
Sun 06:55:39 PM 40.4953 -74.6628 222° Southwest 339 390 21,500 1,230 Climbing New York Center
Sun 06:56:40 PM 40.4278 -74.7489 224° Southwest 334 384 22,700 1,068 Climbing New York Center
Sun 06:57:37 PM 40.3583 -74.8347 223° Southwest 334 384 23,600 1,026 Climbing New York Center
Sun 06:58:37 PM 40.3147 -74.9439 242° Southwest 340 391 24,700 893 Climbing New York Center
Sun 06:59:38 PM 40.2758 -75.0447 243° Southwest 340 391 25,400 689 Climbing New York Center
Sun 07:00:39 PM 40.2219 -75.1475 236° Southwest 340 391 26,100 694 Climbing New York Center
Sun 07:01:39 PM 40.1639 -75.2497 233° Southwest 350 403 26,800 661 Climbing New York Center
Sun 07:02:37 PM 40.1058 -75.3547 234° Southwest 360 414 27,400 555 Climbing New York Center
Sun 07:03:38 PM 40.0453 -75.4592 233° Southwest 365 420 27,900 298 Climbing New York Center
Sun 07:04:38 PM 39.9828 -75.5633 232° Southwest 371 427 28,000 50 Climbing New York Center
Sun 07:05:38 PM 39.9222 -75.6700 234° Southwest 371 427 28,000  Level New York Center
Sun 07:06:39 PM 39.8617 -75.7714 232° Southwest 371 427 28,000  Level New York Center
Sun 07:08:31 PM 39.7256 -75.9747 229° Southwest 373 429 28,000  Level Washington Center
Sun 07:09:31 PM 39.6689 -76.0742 234° Southwest 373 429 28,000  Level Washington Center
Sun 07:10:32 PM 39.6039 -76.1733 230° Southwest 373 429 28,000  Level Washington Center
Sun 07:11:32 PM 39.5389 -76.2722 230° Southwest 373 429 28,000  Level Washington Center
Sun 07:12:33 PM 39.4756 -76.3711 230° Southwest 373 429 28,000  Level Washington Center
Sun 07:13:31 PM 39.4083 -76.4700 229° Southwest 373 429 28,000  Level Washington Center
Sun 07:14:32 PM 39.3450 -76.5683 230° Southwest 373 429 28,000  Level Washington Center
Sun 07:15:33 PM 39.2817 -76.6667 230° Southwest 368 423 28,000  Level Washington Center
Sun 07:16:31 PM 39.2203 -76.7650 231° Southwest 368 423 28,000  Level Washington Center
Sun 07:17:32 PM 39.1567 -76.8658 231° Southwest 368 423 28,000  Level Washington Center
Sun 07:18:32 PM 39.0931 -76.9636 230° Southwest 368 423 28,000  Level Washington Center
Sun 07:19:33 PM 39.0253 -77.0558 227° Southwest 368 423 28,000  Level Washington Center
Sun 07:20:31 PM 38.9492 -77.1425 222° Southwest 368 423 28,000  Level Washington Center
Sun 07:21:31 PM 38.8711 -77.2261 220° Southwest 373 429 28,000  Level Washington Center
Sun 07:22:32 PM 38.7906 -77.3147 221° Southwest 373 429 28,000  Level Washington Center
Sun 07:23:33 PM 38.7228 -77.3906 221° Southwest 373 429 28,000  Level Washington Center
Sun 07:24:33 PM 38.6422 -77.4789 221° Southwest 373 429 28,000  Level Washington Center
Sun 07:25:31 PM 38.5636 -77.5619 220° Southwest 373 429 28,000  Level Washington Center
Sun 07:26:32 PM 38.4892 -77.6553 224° Southwest 378 435 28,000  Level Washington Center
Sun 07:27:33 PM 38.4167 -77.7514 226° Southwest 372 428 28,000  Level Washington Center
Sun 07:28:33 PM 38.3397 -77.8525 226° Southwest 384 442 28,000  Level Washington Center
Sun 07:29:31 PM 38.2625 -77.9558 226° Southwest 402 463 28,000  Level Washington Center
Sun 07:30:32 PM 38.1833 -78.0589 226° Southwest 407 468 28,000  Level Washington Center
Sun 07:31:32 PM 38.1039 -78.1644 226° Southwest 407 468 28,000  Level Washington Center
Sun 07:32:33 PM 38.0100 -78.2642 220° Southwest 405 466 28,000  Level Washington Center
Sun 07:33:32 PM 37.9203 -78.3583 220° Southwest 405 466 28,000  Level Washington Center
Sun 07:34:33 PM 37.8325 -78.4525 220° Southwest 410 472 28,000  Level Washington Center
Sun 07:35:33 PM 37.7533 -78.5336 219° Southwest 410 472 28,000  Level Washington Center
Sun 07:36:31 PM 37.6592 -78.6375 221° Southwest 418 481 28,000  Level Washington Center
Sun 07:37:31 PM 37.5800 -78.7156 218° Southwest 411 473 28,000  Level Washington Center
Sun 07:38:32 PM 37.4856 -78.8111 219° Southwest 411 473 28,000  Level Washington Center
Sun 07:39:32 PM 37.4103 -78.8917 220° Southwest 411 473 28,000  Level Washington Center
Sun 07:40:33 PM 37.3136 -78.9919 220° Southwest 411 473 28,000  Level Washington Center
Sun 07:41:31 PM 37.2381 -79.0825 224° Southwest 411 473 28,000  Level Washington Center
Sun 07:42:32 PM 37.1572 -79.2064 231° Southwest 425 489 28,000  Level Washington Center
Sun 07:43:33 PM 37.0775 -79.2911 220° Southwest 425 489 28,000  Level Washington Center
Sun 07:44:34 PM 36.9742 -79.3903 217° Southwest 430 495 28,000  Level Washington Center
Sun 07:45:31 PM 36.8881 -79.4717 217° Southwest 436 502 28,000  Level Washington Center
Sun 07:46:31 PM 36.7847 -79.5703 217° Southwest 429 494 28,000  Level Washington Center
Sun 07:47:32 PM 36.6986 -79.6514 217° Southwest 429 494 28,000 -722 Level Washington Center
Sun 07:48:44 PM 36.5803 -79.7628 217° Southwest 440 506 26,400 -1,409 Descending Atlanta Center
Sun 07:49:44 PM 36.4831 -79.8506 216° Southwest 440 506 24,900 -1,500 Descending Atlanta Center
Sun 07:50:44 PM 36.3900 -79.9353 216° Southwest 439 505 23,400 -1,450 Descending Atlanta Center
Sun 07:51:44 PM 36.3011 -80.0172 217° Southwest 412 474 22,000 -950 Descending Atlanta Center
Sun 07:52:44 PM 36.2097 -80.0939 214° Southwest 402 463 21,500 -1,250 Descending Atlanta Center
Sun 07:53:44 PM 36.1225 -80.1700 215° Southwest 396 456 19,500 -1,850 Descending Atlanta Center
Sun 07:54:44 PM 36.0289 -80.2492 214° Southwest 382 440 17,800 -1,647 Descending Atlanta Center
Sun 07:55:26 PM 35.9742 -80.3003 217° Southwest 369 425 16,700 -1,700 Descending Atlanta Center
Sun 07:55:44 PM 35.9478 -80.3194 210° Southwest 377 434 16,100 -2,000 Descending Atlanta Center
Sun 07:56:44 PM 35.8683 -80.3872 215° Southwest 363 418 14,100 -1,744 Descending Atlanta Center
Sun 07:57:10 PM 35.8381 -80.4192 221° Southwest 334 384 13,600 -1,000 Descending Atlanta Center
Sun 07:57:44 PM 35.7931 -80.4519 211° Southwest 344 396 13,100 -655 Descending Atlanta Center
Sun 07:58:05 PM 35.7686 -80.4736 216° Southwest 312 359 13,000 -1,000 Descending Atlanta Center
Sun 07:58:44 PM 35.7258 -80.5086 214° Southwest 319 367 12,100 -1,636 Descending Atlanta Center
Sun 07:59:00 PM 35.7078 -80.5275 220° Southwest 289 333 11,500 -1,300 Descending Atlanta Center
Sun 07:59:44 PM 35.6500 -80.5528 200° South 301 346 10,800 -1,279 Descending Atlanta Center
Sun 08:00:01 PM 35.6317 -80.5717 220° Southwest 292 336 10,200 -2,100 Descending Atlanta Center
Sun 08:00:44 PM 35.5825 -80.6017 206° Southwest 301 346 8,700 -2,000 Descending Atlanta Center
Sun 08:01:01 PM 35.5642 -80.6178 216° Southwest 285 328 8,200 -1,700 Descending Atlanta Center
Sun 08:01:44 PM 35.5192 -80.6478 208° Southwest 296 341 7,000 -1,791 Descending Atlanta Center
Sun 08:02:08 PM 35.4886 -80.6744 215° Southwest 276 318 6,200 -1,400 Descending Atlanta Center
Sun 08:02:44 PM 35.4578 -80.6911 204° Southwest 280 322 5,600 -1,377 Descending Atlanta Center
Sun 08:03:09 PM 35.4311 -80.7100 210° Southwest 218 251 4,800 -1,400 Descending Atlanta Center
Sun 08:03:44 PM 35.4064 -80.7211 200° South 237 273 4,200 -716 Descending Atlanta Center
Sun 08:04:16 PM 35.3775 -80.7350 201° Southwest 184 212 4,000 -200 Descending Atlanta Center
Sun 08:04:44 PM 35.3611 -80.7433 203° Southwest 196 226 4,000  Level Atlanta Center
Sun 08:05:17 PM 35.3408 -80.7672 224° Southwest 163 188 4,000  Level Atlanta Center

Login

Don't have an account? Register now (free) for customized features, flight alerts, and more!